createdAt,value
2023-04-05T00:00:01.437Z,100.00
2023-04-05T00:02:32.290Z,100.00
2023-04-05T00:05:03.371Z,100.00
2023-04-05T00:07:34.428Z,100.00
2023-04-05T00:10:04.284Z,100.00
2023-04-05T00:12:33.936Z,100.00
2023-04-05T00:15:06.728Z,100.00
2023-04-05T00:17:36.331Z,100.00
2023-04-05T00:20:08.131Z,100.00
2023-04-05T00:22:38.503Z,100.00
2023-04-05T00:25:09.380Z,100.00
2023-04-05T00:27:39.181Z,100.00
2023-04-05T00:30:12.231Z,100.00
2023-04-05T00:32:42.275Z,100.00
2023-04-05T00:35:12.454Z,100.00
2023-04-05T00:37:42.117Z,100.00
2023-04-05T00:40:13.035Z,100.00
2023-04-05T00:42:42.767Z,100.00
2023-04-05T00:45:16.638Z,100.00
2023-04-05T00:47:47.848Z,100.00
2023-04-05T00:50:18.431Z,100.00
2023-04-05T00:52:49.753Z,100.00
2023-04-05T00:55:20.168Z,100.00
2023-04-05T00:57:50.215Z,100.00
2023-04-05T01:00:23.430Z,100.00
2023-04-05T01:02:57.999Z,100.00
2023-04-05T01:05:37.832Z,100.00
2023-04-05T01:08:16.505Z,100.00
2023-04-05T01:10:51.748Z,100.00
2023-04-05T01:13:21.459Z,100.00
2023-04-05T01:15:54.141Z,100.00
2023-04-05T01:18:24.641Z,100.00
2023-04-05T01:21:02.347Z,100.00
2023-04-05T01:23:40.953Z,100.00
2023-04-05T01:26:40.473Z,100.00
2023-04-05T01:29:47.513Z,100.00
2023-04-05T01:32:27.714Z,100.00
2023-04-05T01:35:04.741Z,100.00
2023-04-05T01:37:37.920Z,100.00
2023-04-05T01:40:09.178Z,100.00
2023-04-05T01:42:39.097Z,100.00
2023-04-05T01:45:12.662Z,100.00
2023-04-05T01:47:45.188Z,100.00
2023-04-05T01:50:15.788Z,100.00
2023-04-05T01:52:45.541Z,100.00
2023-04-05T01:55:15.236Z,100.00
2023-04-05T01:57:44.891Z,100.00
2023-04-05T02:00:16.315Z,100.00
2023-04-05T02:02:49.231Z,100.00
2023-04-05T02:05:21.700Z,100.00
2023-04-05T02:07:51.428Z,100.00
2023-04-05T02:10:21.679Z,100.00
2023-04-05T02:12:51.372Z,100.00
2023-04-05T02:15:21.179Z,100.00
2023-04-05T02:17:54.404Z,100.00
2023-04-05T02:20:26.077Z,100.00
2023-04-05T02:22:55.906Z,100.00
2023-04-05T02:25:25.837Z,100.00
2023-04-05T02:27:55.560Z,100.00
2023-04-05T02:30:25.209Z,100.00
2023-04-05T02:32:57.557Z,100.00
2023-04-05T02:35:27.275Z,100.00
2023-04-05T02:37:57.028Z,100.00
2023-04-05T02:40:26.709Z,100.00
2023-04-05T02:42:56.575Z,100.00
2023-04-05T02:45:28.062Z,100.00
2023-04-05T02:48:02.669Z,100.00
2023-04-05T02:50:34.525Z,100.00
2023-04-05T02:53:04.296Z,100.00
2023-04-05T02:55:34.259Z,100.00
2023-04-05T02:58:04.992Z,100.00
2023-04-05T03:00:41.095Z,100.00
2023-04-05T03:03:15.104Z,100.00
2023-04-05T03:05:45.861Z,100.00
2023-04-05T03:08:19.768Z,100.00
2023-04-05T03:11:00.174Z,100.00
2023-04-05T03:13:29.805Z,100.00
2023-04-05T03:16:00.382Z,100.00
2023-04-05T03:18:35.329Z,100.00
2023-04-05T03:21:12.020Z,100.00
2023-04-05T03:23:50.589Z,100.00
2023-04-05T03:26:25.845Z,100.00
2023-04-05T03:28:56.699Z,100.00
2023-04-05T03:31:33.823Z,100.00
2023-04-05T03:34:10.567Z,100.00
2023-04-05T03:36:49.940Z,100.00
2023-04-05T03:39:39.903Z,100.00
2023-04-05T03:42:09.549Z,100.00
2023-04-05T03:44:39.765Z,100.00
2023-04-05T03:47:09.519Z,100.00
2023-04-05T03:49:44.358Z,100.00
2023-04-05T03:52:14.029Z,100.00
2023-04-05T03:54:47.536Z,100.00
2023-04-05T03:57:21.667Z,100.00
2023-04-05T03:59:52.779Z,100.00
2023-04-05T04:02:22.513Z,100.00
2023-04-05T04:04:55.777Z,100.00
2023-04-05T04:07:26.929Z,100.00
2023-04-05T04:09:57.122Z,100.00
2023-04-05T04:12:27.287Z,100.00
2023-04-05T04:15:01.816Z,100.00
2023-04-05T04:18:00.660Z,100.00
2023-04-05T04:20:38.651Z,100.00
2023-04-05T04:23:25.073Z,100.00
2023-04-05T04:25:57.694Z,100.00
2023-04-05T04:28:46.509Z,100.00
2023-04-05T04:31:49.846Z,100.00
2023-04-05T04:34:21.296Z,100.00
2023-04-05T04:37:18.016Z,100.00
2023-04-05T04:40:19.307Z,100.00
2023-04-05T04:43:27.376Z,100.00
2023-04-05T04:46:15.632Z,100.00
2023-04-05T04:49:06.299Z,100.00
2023-04-05T04:51:36.433Z,100.00
2023-04-05T04:54:08.981Z,100.00
2023-04-05T04:56:38.663Z,100.00
2023-04-05T04:59:08.330Z,100.00
2023-04-05T05:01:38.190Z,100.00
2023-04-05T05:04:08.209Z,100.00
2023-04-05T05:06:40.323Z,100.00
2023-04-05T05:09:12.823Z,100.00
2023-04-05T05:11:50.532Z,100.00
2023-04-05T05:14:20.202Z,100.00
2023-04-05T05:16:49.870Z,100.00
2023-04-05T05:19:21.524Z,100.00
2023-04-05T05:21:54.934Z,100.00
2023-04-05T05:24:27.850Z,100.00
2023-04-05T05:26:57.541Z,100.00
2023-04-05T05:29:27.401Z,100.00
2023-04-05T05:31:57.356Z,100.00
2023-04-05T05:34:27.505Z,100.00
2023-04-05T05:37:00.118Z,100.00
2023-04-05T05:39:32.324Z,100.00
2023-04-05T05:42:01.949Z,100.00
2023-04-05T05:44:31.854Z,100.00
2023-04-05T05:47:01.521Z,100.00
2023-04-05T05:49:31.354Z,100.00
2023-04-05T05:52:01.147Z,100.00
2023-04-05T05:54:33.489Z,100.00
2023-04-05T05:57:03.693Z,100.00
2023-04-05T05:59:33.561Z,100.00
2023-04-05T06:02:03.427Z,100.00
2023-04-05T06:04:34.546Z,100.00
2023-04-05T06:07:04.346Z,100.00
2023-04-05T06:09:36.760Z,100.00
2023-04-05T06:12:06.747Z,100.00
2023-04-05T06:14:36.504Z,100.00
2023-04-05T06:17:06.270Z,100.00
2023-04-05T06:19:36.168Z,100.00
2023-04-05T06:22:05.999Z,100.00
2023-04-05T06:24:38.694Z,100.00
2023-04-05T06:27:08.378Z,100.00
2023-04-05T06:29:38.114Z,100.00
2023-04-05T06:32:08.273Z,100.00
2023-04-05T06:34:37.963Z,100.00
2023-04-05T06:37:07.646Z,100.00
2023-04-05T06:39:39.897Z,100.00
2023-04-05T06:42:09.732Z,100.00
2023-04-05T06:44:46.561Z,100.00
2023-04-05T06:47:17.540Z,100.00
2023-04-05T06:49:47.201Z,100.00
2023-04-05T06:52:16.830Z,100.00
2023-04-05T06:54:49.097Z,100.00
2023-04-05T06:57:18.743Z,100.00
2023-04-05T06:59:48.858Z,100.00
2023-04-05T07:02:18.502Z,100.00
2023-04-05T07:04:48.518Z,99.67
2023-04-05T07:07:18.313Z,98.00
2023-04-05T07:09:50.561Z,97.80
2023-04-05T07:12:20.302Z,98.41
2023-04-05T07:14:49.942Z,96.81
2023-04-05T07:17:19.799Z,96.09
2023-04-05T07:19:49.690Z,98.19
2023-04-05T07:22:19.358Z,98.60
2023-04-05T07:24:52.629Z,98.57
2023-04-05T07:27:22.428Z,98.90
2023-04-05T07:29:52.362Z,98.45
2023-04-05T07:32:22.136Z,95.45
2023-04-05T07:34:51.935Z,91.32
2023-04-05T07:37:21.728Z,92.20
2023-04-05T07:39:54.204Z,92.13
2023-04-05T07:42:24.075Z,87.61
2023-04-05T07:44:53.904Z,83.34
2023-04-05T07:47:23.549Z,81.36
2023-04-05T07:49:53.280Z,75.11
2023-04-05T07:52:23.038Z,75.54
2023-04-05T07:54:55.338Z,73.17
2023-04-05T07:57:25.362Z,69.34
2023-04-05T07:59:56.879Z,68.43
2023-04-05T08:02:26.551Z,68.94
2023-04-05T08:04:56.333Z,68.65
2023-04-05T08:07:26.272Z,70.61
2023-04-05T08:09:59.527Z,66.87
2023-04-05T08:12:29.504Z,63.52
2023-04-05T08:14:59.265Z,65.09
2023-04-05T08:17:29.294Z,69.98
2023-04-05T08:19:58.961Z,70.24
2023-04-05T08:22:31.020Z,67.77
2023-04-05T08:25:03.372Z,65.19
2023-04-05T08:27:33.142Z,65.63
2023-04-05T08:30:02.823Z,66.04
2023-04-05T08:32:33.258Z,66.57
2023-04-05T08:35:05.235Z,66.99
2023-04-05T08:37:37.027Z,68.26
2023-04-05T08:40:10.959Z,68.32
2023-04-05T08:42:48.661Z,65.43
2023-04-05T08:45:20.925Z,64.70
2023-04-05T08:47:54.625Z,66.21
2023-04-05T08:50:24.788Z,66.03
2023-04-05T08:52:54.505Z,65.82
2023-04-05T08:55:27.710Z,64.53
2023-04-05T08:58:04.881Z,61.75
2023-04-05T09:00:35.888Z,60.85
2023-04-05T09:03:06.980Z,60.88
2023-04-05T09:05:39.576Z,63.06
2023-04-05T09:08:09.672Z,63.55
2023-04-05T09:10:42.137Z,61.99
2023-04-05T09:13:12.167Z,59.41
2023-04-05T09:15:43.250Z,61.02
2023-04-05T09:18:25.433Z,61.22
2023-04-05T09:20:59.842Z,61.01
2023-04-05T09:23:31.378Z,60.03
2023-04-05T09:26:03.794Z,59.17
2023-04-05T09:28:46.060Z,58.57
2023-04-05T09:31:34.533Z,59.63
2023-04-05T09:34:06.834Z,59.46
2023-04-05T09:36:36.969Z,60.67
2023-04-05T09:39:11.380Z,60.38
2023-04-05T09:41:43.645Z,59.26
2023-04-05T09:44:13.367Z,57.24
2023-04-05T09:46:43.941Z,55.41
2023-04-05T09:49:14.626Z,56.47
2023-04-05T09:51:46.357Z,56.41
2023-04-05T09:54:16.427Z,56.14
2023-04-05T09:56:58.855Z,57.28
2023-04-05T09:59:28.949Z,59.00
2023-04-05T10:01:59.184Z,60.60
2023-04-05T10:04:29.208Z,64.61
2023-04-05T10:06:59.240Z,66.59
2023-04-05T10:09:29.185Z,67.25
2023-04-05T10:12:02.860Z,65.44
2023-04-05T10:14:32.654Z,65.82
2023-04-05T10:17:13.061Z,65.21
2023-04-05T10:20:00.236Z,63.00
2023-04-05T10:22:35.638Z,62.21
2023-04-05T10:25:09.497Z,64.76
2023-04-05T10:27:52.717Z,63.77
2023-04-05T10:30:22.435Z,61.34
2023-04-05T10:33:10.212Z,54.92
2023-04-05T10:35:48.208Z,53.95
2023-04-05T10:38:24.672Z,52.51
2023-04-05T10:40:57.593Z,52.96
2023-04-05T10:43:32.012Z,53.23
2023-04-05T10:46:02.525Z,53.59
2023-04-05T10:48:40.067Z,52.72
2023-04-05T10:51:10.437Z,52.34
2023-04-05T10:53:40.864Z,52.58
2023-04-05T10:56:11.579Z,53.34
2023-04-05T10:58:45.754Z,52.41
2023-04-05T11:01:17.689Z,52.56
2023-04-05T11:03:52.116Z,53.73
2023-04-05T11:06:27.483Z,52.79
2023-04-05T11:09:00.092Z,52.66
2023-04-05T11:11:30.097Z,52.36
2023-04-05T11:14:02.420Z,51.24
2023-04-05T11:16:44.742Z,51.06
2023-04-05T11:19:14.433Z,49.80
2023-04-05T11:21:44.557Z,48.45
2023-04-05T11:24:17.069Z,49.04
2023-04-05T11:26:57.751Z,48.23
2023-04-05T11:29:54.728Z,47.36
2023-04-05T11:32:25.363Z,50.23
2023-04-05T11:35:02.591Z,49.70
2023-04-05T11:37:56.063Z,50.52
2023-04-05T11:40:32.462Z,50.75
2023-04-05T11:43:08.016Z,49.86
2023-04-05T11:45:42.004Z,50.50
2023-04-05T11:48:13.485Z,49.73
2023-04-05T11:50:45.342Z,49.16
2023-04-05T11:53:16.320Z,48.50
2023-04-05T11:55:48.230Z,49.83
2023-04-05T11:58:19.186Z,48.16
2023-04-05T12:01:01.213Z,50.81
2023-04-05T12:03:31.897Z,49.50
2023-04-05T12:06:02.952Z,48.20
2023-04-05T12:08:43.573Z,47.96
2023-04-05T12:11:14.366Z,47.88
2023-04-05T12:13:44.180Z,49.63
2023-04-05T12:16:16.875Z,48.80
2023-04-05T12:18:46.548Z,48.05
2023-04-05T12:21:16.391Z,48.04
2023-04-05T12:23:46.160Z,49.13
2023-04-05T12:26:16.445Z,48.53
2023-04-05T12:28:53.664Z,48.25
2023-04-05T12:31:41.548Z,46.54
2023-04-05T12:34:12.423Z,45.59
2023-04-05T12:36:46.323Z,45.47
2023-04-05T12:39:15.990Z,46.02
2023-04-05T12:41:46.369Z,46.30
2023-04-05T12:44:18.866Z,46.74
2023-04-05T12:46:51.177Z,45.50
2023-04-05T12:49:21.662Z,45.58
2023-04-05T12:51:51.424Z,45.63
2023-04-05T12:54:24.402Z,46.07
2023-04-05T12:56:55.224Z,45.61
2023-04-05T12:59:25.986Z,45.61
2023-04-05T13:01:58.382Z,45.57
2023-04-05T13:04:28.960Z,45.48
2023-04-05T13:06:58.569Z,45.42
2023-04-05T13:09:28.184Z,45.39
2023-04-05T13:11:58.078Z,44.64
2023-04-05T13:14:27.838Z,44.11
2023-04-05T13:17:00.055Z,45.21
2023-04-05T13:19:29.770Z,45.51
2023-04-05T13:21:59.508Z,45.25
2023-04-05T13:24:29.215Z,44.55
2023-04-05T13:26:58.959Z,44.19
2023-04-05T13:29:28.640Z,44.84
2023-04-05T13:32:01.163Z,45.20
2023-04-05T13:34:31.653Z,45.92
2023-04-05T13:37:01.488Z,46.37
2023-04-05T13:39:31.136Z,45.83
2023-04-05T13:42:01.671Z,45.48
2023-04-05T13:44:31.799Z,45.64
2023-04-05T13:47:04.075Z,45.88
2023-04-05T13:49:33.796Z,44.51
2023-04-05T13:52:03.610Z,44.74
2023-04-05T13:54:33.294Z,44.83
2023-04-05T13:57:03.047Z,44.04
2023-04-05T13:59:32.797Z,45.04
2023-04-05T14:02:05.172Z,44.45
2023-04-05T14:04:35.060Z,44.43
2023-04-05T14:07:04.731Z,43.94
2023-04-05T14:09:34.461Z,44.05
2023-04-05T14:12:06.830Z,44.73
2023-04-05T14:14:37.122Z,44.78
2023-04-05T14:17:12.687Z,44.96
2023-04-05T14:19:42.340Z,45.28
2023-04-05T14:22:12.155Z,43.84
2023-04-05T14:24:41.799Z,44.45
2023-04-05T14:27:11.779Z,44.72
2023-04-05T14:29:41.475Z,46.43
2023-04-05T14:32:13.752Z,46.42
2023-04-05T14:34:43.473Z,45.97
2023-04-05T14:37:13.174Z,45.22
2023-04-05T14:39:42.914Z,45.07
2023-04-05T14:42:12.662Z,44.42
2023-04-05T14:44:42.291Z,44.94
2023-04-05T14:47:14.803Z,44.59
2023-04-05T14:49:44.453Z,44.81
2023-04-05T14:52:14.140Z,45.09
2023-04-05T14:54:44.955Z,45.60
2023-04-05T14:57:14.724Z,44.95
2023-04-05T14:59:44.365Z,44.42
2023-04-05T15:02:16.802Z,43.73
2023-04-05T15:04:46.475Z,44.10
2023-04-05T15:07:16.340Z,44.18
2023-04-05T15:09:46.044Z,45.18
2023-04-05T15:12:15.728Z,45.47
2023-04-05T15:14:45.750Z,45.94
2023-04-05T15:17:18.104Z,44.85
2023-04-05T15:19:47.881Z,44.76
2023-04-05T15:22:20.542Z,44.82
2023-04-05T15:24:50.390Z,44.31
2023-04-05T15:27:20.119Z,44.70
2023-04-05T15:29:49.835Z,44.40
2023-04-05T15:32:22.243Z,45.28
2023-04-05T15:34:51.939Z,46.39
2023-04-05T15:37:21.807Z,46.50
2023-04-05T15:39:51.559Z,47.12
2023-04-05T15:42:21.933Z,46.70
2023-04-05T15:44:51.816Z,45.51
2023-04-05T15:47:24.059Z,45.85
2023-04-05T15:49:53.739Z,45.30
2023-04-05T15:52:23.498Z,45.94
2023-04-05T15:54:53.179Z,45.57
2023-04-05T15:57:24.340Z,44.45
2023-04-05T15:59:54.576Z,43.36
2023-04-05T16:02:26.896Z,43.67
2023-04-05T16:04:56.564Z,43.90
2023-04-05T16:07:26.699Z,44.86
2023-04-05T16:09:56.389Z,44.43
2023-04-05T16:12:26.145Z,44.55
2023-04-05T16:14:55.864Z,43.70
2023-04-05T16:17:28.434Z,43.53
2023-04-05T16:19:58.553Z,44.48
2023-04-05T16:22:28.975Z,45.24
2023-04-05T16:24:58.684Z,45.65
2023-04-05T16:27:28.347Z,45.52
2023-04-05T16:29:58.039Z,46.10
2023-04-05T16:32:30.290Z,46.20
2023-04-05T16:34:59.970Z,44.35
2023-04-05T16:37:29.636Z,44.47
2023-04-05T16:39:59.525Z,46.44
2023-04-05T16:42:29.248Z,47.46
2023-04-05T16:44:59.000Z,47.15
2023-04-05T16:47:31.497Z,46.14
2023-04-05T16:50:01.197Z,47.54
2023-04-05T16:52:30.962Z,49.48
2023-04-05T16:55:03.018Z,50.09
2023-04-05T16:57:32.973Z,48.71
2023-04-05T17:00:02.670Z,49.13
2023-04-05T17:02:35.035Z,48.63
2023-04-05T17:05:05.032Z,49.56
2023-04-05T17:07:34.788Z,50.06
2023-04-05T17:10:04.921Z,49.85
2023-04-05T17:12:37.391Z,49.89
2023-04-05T17:15:07.385Z,49.96
2023-04-05T17:17:39.838Z,49.66
2023-04-05T17:20:10.974Z,48.52
2023-04-05T17:22:41.594Z,49.02
2023-04-05T17:25:11.921Z,47.09
2023-04-05T17:27:42.439Z,45.98
2023-04-05T17:30:13.259Z,44.37
2023-04-05T17:32:45.652Z,45.62
2023-04-05T17:35:15.654Z,45.92
2023-04-05T17:37:45.463Z,46.85
2023-04-05T17:40:18.713Z,47.81
2023-04-05T17:42:49.462Z,47.93
2023-04-05T17:45:19.209Z,48.27
2023-04-05T17:47:51.443Z,49.20
2023-04-05T17:50:23.739Z,49.89
2023-04-05T17:52:54.432Z,49.63
2023-04-05T17:55:24.551Z,49.80
2023-04-05T17:57:54.222Z,49.62
2023-04-05T18:00:23.942Z,49.08
2023-04-05T18:02:56.843Z,48.04
2023-04-05T18:05:27.315Z,47.41
2023-04-05T18:07:56.985Z,47.09
2023-04-05T18:10:26.694Z,47.35
2023-04-05T18:12:56.622Z,48.11
2023-04-05T18:15:26.344Z,49.40
2023-04-05T18:17:58.978Z,50.75
2023-04-05T18:20:28.742Z,51.51
2023-04-05T18:22:58.394Z,51.59
2023-04-05T18:25:28.327Z,52.64
2023-04-05T18:27:58.216Z,51.21
2023-04-05T18:30:27.855Z,52.23
2023-04-05T18:33:00.258Z,53.61
2023-04-05T18:35:30.135Z,54.19
2023-04-05T18:38:00.063Z,56.38
2023-04-05T18:40:30.280Z,58.23
2023-04-05T18:42:59.911Z,59.75
2023-04-05T18:45:29.662Z,59.67
2023-04-05T18:48:02.263Z,59.92
2023-04-05T18:50:31.985Z,59.78
2023-04-05T18:53:01.900Z,61.36
2023-04-05T18:55:31.576Z,61.49
2023-04-05T18:58:01.463Z,61.63
2023-04-05T19:00:31.267Z,65.14
2023-04-05T19:03:03.672Z,68.04
2023-04-05T19:05:33.619Z,68.15
2023-04-05T19:08:03.390Z,66.37
2023-04-05T19:10:33.724Z,64.71
2023-04-05T19:13:03.403Z,63.76
2023-04-05T19:15:33.084Z,63.90
2023-04-05T19:18:05.364Z,65.26
2023-04-05T19:20:35.231Z,66.43
2023-04-05T19:23:05.998Z,66.73
2023-04-05T19:25:36.922Z,68.47
2023-04-05T19:28:07.684Z,66.97
2023-04-05T19:30:38.416Z,68.08
2023-04-05T19:33:11.101Z,72.70
2023-04-05T19:35:41.948Z,73.69
2023-04-05T19:38:13.404Z,74.69
2023-04-05T19:40:43.184Z,75.62
2023-04-05T19:43:13.119Z,80.08
2023-04-05T19:45:44.577Z,80.06
2023-04-05T19:48:41.807Z,79.95
2023-04-05T19:51:14.298Z,76.73
2023-04-05T19:53:48.093Z,76.00
2023-04-05T19:56:23.737Z,77.79
2023-04-05T19:58:58.857Z,79.12
2023-04-05T20:01:37.614Z,77.96
2023-04-05T20:04:15.798Z,80.59
2023-04-05T20:06:51.516Z,80.96
2023-04-05T20:09:22.449Z,78.64
2023-04-05T20:11:56.544Z,78.15
2023-04-05T20:14:30.665Z,79.08
2023-04-05T20:17:01.545Z,78.46
2023-04-05T20:19:34.398Z,75.88
2023-04-05T20:22:05.534Z,73.89
2023-04-05T20:24:35.200Z,72.28
2023-04-05T20:27:04.938Z,74.99
2023-04-05T20:29:36.346Z,75.10
2023-04-05T20:32:07.999Z,76.69
2023-04-05T20:34:43.920Z,80.00
2023-04-05T20:37:13.855Z,79.72
2023-04-05T20:39:43.585Z,81.81
2023-04-05T20:42:13.683Z,83.04
2023-04-05T20:44:44.081Z,87.12
2023-04-05T20:47:13.723Z,86.40
2023-04-05T20:49:47.911Z,87.39
2023-04-05T20:52:17.607Z,88.19
2023-04-05T20:54:49.958Z,90.79
2023-04-05T20:57:19.633Z,91.06
2023-04-05T20:59:49.271Z,86.64
2023-04-05T21:02:19.136Z,83.70
2023-04-05T21:04:51.845Z,81.70
2023-04-05T21:07:22.218Z,81.25
2023-04-05T21:09:51.879Z,78.25
2023-04-05T21:12:21.580Z,75.92
2023-04-05T21:14:51.212Z,74.88
2023-04-05T21:17:21.004Z,74.09
2023-04-05T21:19:53.282Z,74.17
2023-04-05T21:22:22.953Z,75.79
2023-04-05T21:24:52.598Z,79.33
2023-04-05T21:27:24.514Z,82.57
2023-04-05T21:29:54.176Z,83.37
2023-04-05T21:32:26.130Z,83.71
2023-04-05T21:34:58.342Z,85.13
2023-04-05T21:37:28.115Z,85.22
2023-04-05T21:39:57.827Z,85.07
2023-04-05T21:42:27.981Z,82.08
2023-04-05T21:44:57.632Z,78.76
2023-04-05T21:47:27.425Z,77.71
2023-04-05T21:50:00.166Z,77.10
2023-04-05T21:52:30.897Z,76.53
2023-04-05T21:55:00.782Z,76.26
2023-04-05T21:57:30.505Z,79.48
2023-04-05T22:00:00.164Z,78.81
2023-04-05T22:02:30.061Z,77.70
2023-04-05T22:05:02.347Z,76.08
2023-04-05T22:07:32.288Z,75.83
2023-04-05T22:10:02.165Z,75.12
2023-04-05T22:12:31.936Z,75.37
2023-04-05T22:15:01.739Z,78.16
2023-04-05T22:17:31.622Z,78.67
2023-04-05T22:20:03.937Z,80.43
2023-04-05T22:22:33.729Z,80.86
2023-04-05T22:25:03.566Z,81.13
2023-04-05T22:27:33.265Z,79.02
2023-04-05T22:30:03.459Z,77.04
2023-04-05T22:32:33.373Z,76.41
2023-04-05T22:35:06.491Z,76.47
2023-04-05T22:37:38.360Z,78.79
2023-04-05T22:40:09.430Z,79.59
2023-04-05T22:42:42.168Z,79.38
2023-04-05T22:45:12.887Z,78.49
2023-04-05T22:47:42.575Z,78.40
2023-04-05T22:50:15.003Z,76.84
2023-04-05T22:52:45.105Z,75.65
2023-04-05T22:55:15.774Z,75.48
2023-04-05T22:57:45.498Z,74.01
2023-04-05T23:00:16.638Z,71.85
2023-04-05T23:02:46.381Z,71.53
2023-04-05T23:05:18.824Z,69.31
2023-04-05T23:07:48.492Z,68.31
2023-04-05T23:10:18.223Z,67.47
2023-04-05T23:12:48.848Z,70.75
2023-04-05T23:15:18.576Z,72.82
2023-04-05T23:17:49.407Z,73.33
2023-04-05T23:20:21.871Z,79.61
2023-04-05T23:22:51.524Z,84.13
2023-04-05T23:25:21.205Z,89.11
2023-04-05T23:27:50.905Z,92.49
2023-04-05T23:30:20.613Z,95.29
2023-04-05T23:32:50.523Z,95.88
2023-04-05T23:35:22.796Z,94.79
2023-04-05T23:37:52.549Z,93.67
2023-04-05T23:40:23.247Z,93.93
2023-04-05T23:42:53.455Z,93.08
2023-04-05T23:45:23.088Z,93.72
2023-04-05T23:47:52.769Z,91.80
2023-04-05T23:50:25.183Z,91.81
2023-04-05T23:52:54.869Z,88.94
2023-04-05T23:55:24.912Z,86.90
2023-04-05T23:57:57.904Z,86.22
